Time;durP1;ratioP1;P1;durP2;ratioP2;P2;SDS_P1;SDS_P2;PMS_P1;PMS_P2;Temp;Humidity;BMP_temperature;BMP_pressure;BME280_temperature;BME280_humidity;BME280_pressure;Samples;Min_cycle;Max_cycle;Signal;HPM_P1;HPM_P2
2022/06/14 00:00:55;;;;;;;6.90;2.95;;;;;;;;;;4859440;29;20048;-61
2022/06/14 00:03:29;;;;;;;7.25;2.70;;;;;;;;;;4875497;29;20257;-61
2022/06/14 00:05:56;;;;;;;7.00;3.10;;;;;;;;;;4874870;29;20037;-61
2022/06/14 00:08:25;;;;;;;8.63;2.53;;;;;;;;;;4857418;29;20139;-62
2022/06/14 00:10:52;;;;;;;8.00;2.88;;;;;;;;;;4874286;29;20036;-62
2022/06/14 00:13:18;;;;;;;6.82;2.50;;;;;;;;;;4876849;29;20040;-62
2022/06/14 00:15:45;;;;;;;7.65;2.67;;;;;;;;;;4874533;29;20044;-61
2022/06/14 00:18:12;;;;;;;9.57;3.05;;;;;;;;;;4876172;29;20048;-62
2022/06/14 00:20:38;;;;;;;7.63;2.50;;;;;;;;;;4875593;29;20097;-62
2022/06/14 00:23:04;;;;;;;13.07;2.70;;;;;;;;;;4877229;29;20331;-61
2022/06/14 00:25:36;;;;;;;8.85;2.70;;;;;;;;;;4874816;29;20033;-60
2022/06/14 00:28:03;;;;;;;10.25;3.10;;;;;;;;;;4879744;29;20469;-60
2022/06/14 00:30:29;;;;;;;6.57;2.58;;;;;;;;;;4877905;29;20045;-60
2022/06/14 00:32:55;;;;;;;9.60;3.38;;;;;;;;;;4877910;29;20052;-61
2022/06/14 00:35:20;;;;;;;7.88;2.80;;;;;;;;;;4875437;29;20252;-62
2022/06/14 00:37:46;;;;;;;6.90;2.60;;;;;;;;;;4880266;29;20089;-60
2022/06/14 00:40:16;;;;;;;6.78;2.55;;;;;;;;;;4879880;29;20116;-60
2022/06/14 00:42:42;;;;;;;5.88;2.70;;;;;;;;;;4879342;29;20048;-61
2022/06/14 00:45:13;;;;;;;6.40;2.85;;;;;;;;;;4880572;29;20026;-62
2022/06/14 00:47:40;;;;;;;;;;;;;;;;;;4862318;29;20037;-61
2022/06/14 00:50:15;;;;;;;8.57;2.90;;;;;;;;;;4880000;29;19916;-61
2022/06/14 00:52:51;;;;;;;6.25;2.80;;;;;;;;;;4866691;29;20033;-62
2022/06/14 00:55:36;;;;;;;8.00;3.00;;;;;;;;;;4862566;29;20093;-62
2022/06/14 00:58:09;;;;;;;5.40;2.60;;;;;;;;;;4880203;29;20125;-62
2022/06/14 01:00:51;;;;;;;8.95;2.80;;;;;;;;;;4878050;29;20045;-61
2022/06/14 01:03:25;;;;;;;7.43;3.20;;;;;;;;;;4861520;29;20045;-62
2022/06/14 01:06:06;;;;;;;10.02;3.05;;;;;;;;;;4867767;29;20121;-61
2022/06/14 01:08:35;;;;;;;8.07;2.90;;;;;;;;;;4877295;29;20037;-61
2022/06/14 01:11:04;;;;;;;7.65;2.90;;;;;;;;;;4879296;29;20043;-61
2022/06/14 01:13:29;;;;;;;4.95;2.90;;;;;;;;;;4879763;29;20077;-61
2022/06/14 01:15:55;;;;;;;7.05;3.03;;;;;;;;;;4879237;29;20033;-62
2022/06/14 01:18:23;;;;;;;5.70;3.05;;;;;;;;;;4875784;29;20037;-61
2022/06/14 01:20:49;;;;;;;6.15;2.75;;;;;;;;;;4877601;29;20060;-60
2022/06/14 01:23:16;;;;;;;6.00;3.10;;;;;;;;;;4877480;29;20427;-60
2022/06/14 01:25:49;;;;;;;7.65;3.20;;;;;;;;;;4861862;29;20447;-60
2022/06/14 01:28:16;;;;;;;9.23;3.00;;;;;;;;;;4875881;29;20077;-60
2022/06/14 01:30:48;;;;;;;7.78;3.08;;;;;;;;;;4878561;29;20040;-62
2022/06/14 01:33:18;;;;;;;8.35;3.17;;;;;;;;;;4877182;29;20033;-60
2022/06/14 01:35:49;;;;;;;8.98;3.03;;;;;;;;;;4871374;29;20099;-61
2022/06/14 01:38:16;;;;;;;7.75;3.00;;;;;;;;;;4877338;29;20052;-61
2022/06/14 01:41:12;;;;;;;10.90;2.97;;;;;;;;;;4879401;29;20060;-63
2022/06/14 01:43:52;;;;;;;10.63;3.38;;;;;;;;;;4876930;29;20037;-60
2022/06/14 01:46:24;;;;;;;7.80;3.27;;;;;;;;;;4878666;29;20040;-60
2022/06/14 01:52:09;;;;;;;7.13;3.20;;;;;;;;;;4877029;29;20044;-60
2022/06/14 01:54:44;;;;;;;6.75;3.00;;;;;;;;;;4879594;29;20033;-60
2022/06/14 01:57:23;;;;;;;7.75;3.20;;;;;;;;;;4876555;29;20068;-60
2022/06/14 02:00:04;;;;;;;11.32;3.05;;;;;;;;;;4875886;29;20504;-60
2022/06/14 02:02:35;;;;;;;;;;;;;;;;;;4878201;29;20439;-61
2022/06/14 02:05:20;;;;;;;7.85;3.05;;;;;;;;;;4862860;29;20549;-61
2022/06/14 02:07:57;;;;;;;10.48;3.30;;;;;;;;;;4877949;29;20045;-61
2022/06/14 02:10:36;;;;;;;7.63;3.10;;;;;;;;;;4878597;29;20037;-61
2022/06/14 02:13:13;;;;;;;9.50;3.25;;;;;;;;;;4878250;29;20055;-62
2022/06/14 02:15:44;;;;;;;7.13;3.10;;;;;;;;;;4858998;29;20085;-62
2022/06/14 02:18:28;;;;;;;7.50;3.28;;;;;;;;;;4878144;29;20041;-61
2022/06/14 02:21:13;;;;;;;8.63;3.50;;;;;;;;;;4874731;29;20057;-61
2022/06/14 02:23:47;;;;;;;8.75;3.38;;;;;;;;;;4879096;29;20033;-61
2022/06/14 02:26:19;;;;;;;8.23;3.33;;;;;;;;;;4862030;29;20060;-60
2022/06/14 02:28:52;;;;;;;7.22;3.38;;;;;;;;;;4878346;29;20036;-62
2022/06/14 02:31:42;;;;;;;7.47;3.60;;;;;;;;;;4877349;29;20036;-60
2022/06/14 02:34:19;;;;;;;10.07;3.45;;;;;;;;;;4877911;29;20044;-60
2022/06/14 02:36:53;;;;;;;7.65;3.33;;;;;;;;;;4875265;29;20154;-63
2022/06/14 02:39:24;;;;;;;7.18;3.28;;;;;;;;;;4877658;29;20064;-62
2022/06/14 02:41:56;;;;;;;9.57;3.35;;;;;;;;;;4877784;29;20434;-62
2022/06/14 02:44:33;;;;;;;8.10;3.75;;;;;;;;;;4869959;29;20041;-61
2022/06/14 02:47:15;;;;;;;11.18;4.03;;;;;;;;;;4877489;29;20045;-61
2022/06/14 02:50:00;;;;;;;9.05;3.63;;;;;;;;;;4876368;29;20033;-61
2022/06/14 02:52:50;;;;;;;8.82;3.47;;;;;;;;;;4862796;29;20466;-61
2022/06/14 02:55:23;;;;;;;7.38;3.25;;;;;;;;;;4873634;29;20126;-60
2022/06/14 02:58:07;;;;;;;9.98;3.60;;;;;;;;;;4877668;29;20072;-60
2022/06/14 03:00:44;;;;;;;7.47;3.47;;;;;;;;;;4877512;29;20039;-60
2022/06/14 03:03:29;;;;;;;11.43;3.95;;;;;;;;;;4877281;29;20047;-61
2022/06/14 03:06:08;;;;;;;8.35;3.90;;;;;;;;;;4876621;29;20537;-61
2022/06/14 03:08:59;;;;;;;9.95;4.25;;;;;;;;;;4860795;29;20454;-61
2022/06/14 03:11:36;;;;;;;7.50;3.42;;;;;;;;;;4851777;29;20092;-61
2022/06/14 03:14:20;;;;;;;11.45;3.55;;;;;;;;;;4862909;29;20049;-60
2022/06/14 03:17:38;;;;;;;8.73;4.40;;;;;;;;;;4875576;29;20041;-62
2022/06/14 03:20:09;;;;;;;7.40;3.70;;;;;;;;;;4861744;29;20041;-60
2022/06/14 03:22:50;;;;;;;8.75;3.92;;;;;;;;;;4878206;29;20478;-61
2022/06/14 03:25:25;;;;;;;9.48;3.83;;;;;;;;;;4870351;29;20048;-65
2022/06/14 03:28:01;;;;;;;7.50;3.88;;;;;;;;;;4876004;29;20487;-60
2022/06/14 03:30:32;;;;;;;9.52;3.92;;;;;;;;;;4875278;29;20048;-61
2022/06/14 03:33:03;;;;;;;10.43;3.65;;;;;;;;;;4872962;29;20037;-62
2022/06/14 03:35:35;;;;;;;9.50;3.53;;;;;;;;;;4876501;29;20141;-61
2022/06/14 03:38:07;;;;;;;8.18;3.60;;;;;;;;;;4875815;29;20422;-62
2022/06/14 03:40:33;;;;;;;7.68;3.58;;;;;;;;;;4877944;29;20045;-61
2022/06/14 03:43:00;;;;;;;9.52;3.88;;;;;;;;;;4877110;29;20044;-62
2022/06/14 03:45:37;;;;;;;13.00;4.13;;;;;;;;;;4861255;29;20470;-61
2022/06/14 03:48:04;;;;;;;10.07;4.10;;;;;;;;;;4876936;29;20051;-62
2022/06/14 03:50:38;;;;;;;7.75;3.90;;;;;;;;;;4878211;29;20037;-62
2022/06/14 03:53:10;;;;;;;8.02;4.30;;;;;;;;;;4877573;29;20033;-62
2022/06/14 03:55:42;;;;;;;9.63;4.35;;;;;;;;;;4878214;29;20040;-61
2022/06/14 03:58:35;;;;;;;6.43;3.80;;;;;;;;;;4876211;29;20040;-61
2022/06/14 04:01:39;;;;;;;8.63;4.45;;;;;;;;;;4877766;29;20068;-62
2022/06/14 04:04:23;;;;;;;10.77;4.30;;;;;;;;;;4840017;29;20095;-61
2022/06/14 04:07:07;;;;;;;11.27;4.47;;;;;;;;;;4882205;29;20029;-61
2022/06/14 04:10:05;;;;;;;9.50;4.00;;;;;;;;;;4866226;29;20111;-61
2022/06/14 04:13:12;;;;;;;9.23;4.53;;;;;;;;;;4881718;29;20128;-60
2022/06/14 04:15:48;;;;;;;11.82;4.32;;;;;;;;;;4869149;29;20053;-61
2022/06/14 04:18:35;;;;;;;8.48;4.00;;;;;;;;;;4880991;29;20094;-61
2022/06/14 04:21:42;;;;;;;8.98;4.10;;;;;;;;;;4881296;29;20108;-60
2022/06/14 04:24:17;;;;;;;9.85;4.85;;;;;;;;;;4880572;29;20048;-60
2022/06/14 04:26:57;;;;;;;8.80;4.40;;;;;;;;;;4880660;29;20128;-60
2022/06/14 04:29:38;;;;;;;8.63;4.53;;;;;;;;;;4880967;29;20040;-60
2022/06/14 04:32:16;;;;;;;;;;;;;;;;;;4863979;29;20040;-60
2022/06/14 04:35:12;;;;;;;9.00;4.10;;;;;;;;;;4879407;29;20211;-60
2022/06/14 04:37:46;;;;;;;8.30;4.15;;;;;;;;;;4876400;29;20041;-60
2022/06/14 04:40:19;;;;;;;10.63;4.72;;;;;;;;;;4881068;29;20029;-60
2022/06/14 04:42:56;;;;;;;8.25;4.22;;;;;;;;;;4881036;29;20065;-60
2022/06/14 04:45:34;;;;;;;9.13;4.57;;;;;;;;;;4880582;29;20037;-60
2022/06/14 04:48:10;;;;;;;12.20;4.60;;;;;;;;;;4879819;29;20085;-61
2022/06/14 04:50:43;;;;;;;12.35;4.65;;;;;;;;;;4881172;29;20040;-61
2022/06/14 04:53:21;;;;;;;10.50;4.78;;;;;;;;;;4863835;29;20077;-61
2022/06/14 04:55:57;;;;;;;9.27;4.97;;;;;;;;;;4881014;29;20041;-60
2022/06/14 04:58:36;;;;;;;9.40;4.53;;;;;;;;;;4879995;29;20180;-61
2022/06/14 05:01:07;;;;;;;10.77;4.40;;;;;;;;;;4866679;29;20120;-60
2022/06/14 05:03:41;;;;;;;7.70;3.95;;;;;;;;;;4879714;29;20420;-60
2022/06/14 05:06:24;;;;;;;10.35;4.13;;;;;;;;;;4879350;29;20029;-60
2022/06/14 05:08:58;;;;;;;9.02;3.55;;;;;;;;;;4879975;29;20479;-61
2022/06/14 05:11:44;;;;;;;9.82;3.50;;;;;;;;;;4879900;29;20478;-60
2022/06/14 05:14:36;;;;;;;8.32;4.03;;;;;;;;;;4880057;29;20033;-61
2022/06/14 05:17:05;;;;;;;11.82;3.88;;;;;;;;;;4866510;29;20033;-60
2022/06/14 05:19:43;;;;;;;11.98;3.92;;;;;;;;;;4878916;29;20044;-60
2022/06/14 05:22:18;;;;;;;8.20;3.58;;;;;;;;;;4877983;29;20379;-62
2022/06/14 05:24:44;;;;;;;10.90;3.55;;;;;;;;;;4880617;29;20044;-60
2022/06/14 05:27:30;;;;;;;9.43;3.10;;;;;;;;;;4878959;29;20044;-59
2022/06/14 05:30:34;;;;;;;8.68;3.70;;;;;;;;;;4880425;29;20029;-62
2022/06/14 05:33:14;;;;;;;9.68;3.20;;;;;;;;;;4877127;29;20555;-62
2022/06/14 05:35:43;;;;;;;8.02;3.58;;;;;;;;;;4879164;29;20498;-61
2022/06/14 05:38:32;;;;;;;11.43;3.38;;;;;;;;;;4878880;29;20103;-60
2022/06/14 05:41:02;;;;;;;7.65;3.15;;;;;;;;;;4863364;29;20037;-60
2022/06/14 05:43:57;;;;;;;11.90;3.60;;;;;;;;;;4880494;29;20040;-60
2022/06/14 05:46:32;;;;;;;11.00;3.92;;;;;;;;;;4877602;29;20049;-60
2022/06/14 05:49:02;;;;;;;7.20;3.40;;;;;;;;;;4878869;29;20059;-60
2022/06/14 05:51:35;;;;;;;11.52;3.50;;;;;;;;;;4879535;29;20144;-60
2022/06/14 05:54:11;;;;;;;11.48;3.80;;;;;;;;;;4878896;29;20494;-60
2022/06/14 05:56:50;;;;;;;7.82;3.90;;;;;;;;;;4879614;29;20455;-60
2022/06/14 05:59:22;;;;;;;8.70;3.60;;;;;;;;;;4861149;29;20061;-60
2022/06/14 06:02:03;;;;;;;9.15;3.58;;;;;;;;;;4861287;29;20037;-60
2022/06/14 06:04:45;;;;;;;8.55;3.63;;;;;;;;;;4872462;29;20120;-60
2022/06/14 06:07:14;;;;;;;10.30;3.22;;;;;;;;;;4877859;29;20051;-60
2022/06/14 06:09:52;;;;;;;13.13;3.25;;;;;;;;;;4879203;29;20029;-61
2022/06/14 06:12:24;;;;;;;9.98;3.60;;;;;;;;;;4878222;29;20041;-61
2022/06/14 06:14:57;;;;;;;9.52;3.10;;;;;;;;;;4879964;29;20040;-61
2022/06/14 06:17:29;;;;;;;7.55;2.80;;;;;;;;;;4879786;29;20110;-60
2022/06/14 06:19:54;;;;;;;11.52;3.28;;;;;;;;;;4880044;29;20071;-60
2022/06/14 06:22:50;;;;;;;7.25;3.03;;;;;;;;;;4866137;29;20072;-61
2022/06/14 06:25:21;;;;;;;9.13;2.95;;;;;;;;;;4877796;29;20044;-60
2022/06/14 06:27:56;;;;;;;6.70;2.75;;;;;;;;;;4879050;29;20056;-60
2022/06/14 06:30:27;;;;;;;9.00;2.60;;;;;;;;;;4879807;29;20386;-60
2022/06/14 06:32:54;;;;;;;7.82;2.55;;;;;;;;;;4879549;29;20176;-60
2022/06/14 06:35:26;;;;;;;6.88;2.50;;;;;;;;;;4877713;29;20072;-60
2022/06/14 06:38:14;;;;;;;9.00;2.70;;;;;;;;;;4877524;29;20029;-60
2022/06/14 06:41:49;;;;;;;7.32;2.40;;;;;;;;;;4879600;29;20047;-61
2022/06/14 06:43:34;;;;;;;9.68;2.65;;;;;;;;;;4878732;29;20402;-61
2022/06/14 06:46:00;;;;;;;10.00;2.60;;;;;;;;;;4877737;29;20041;-60
2022/06/14 06:48:38;;;;;;;9.15;2.85;;;;;;;;;;4879409;29;20025;-63
2022/06/14 06:51:08;;;;;;;9.35;2.63;;;;;;;;;;4877536;29;20088;-60
2022/06/14 06:53:41;;;;;;;8.93;2.33;;;;;;;;;;4878594;29;20041;-60
2022/06/14 06:56:12;;;;;;;12.23;2.60;;;;;;;;;;4877502;29;20068;-60
2022/06/14 06:58:46;;;;;;;10.35;2.42;;;;;;;;;;4878270;29;20458;-61
2022/06/14 07:01:16;;;;;;;5.70;2.00;;;;;;;;;;4863704;29;20033;-61
2022/06/14 07:03:44;;;;;;;7.68;2.20;;;;;;;;;;4879235;29;20033;-60
2022/06/14 07:06:44;;;;;;;7.45;2.10;;;;;;;;;;4877846;29;20036;-60
2022/06/14 07:09:16;;;;;;;10.10;2.33;;;;;;;;;;4855000;29;20569;-60
2022/06/14 07:12:08;;;;;;;13.20;2.45;;;;;;;;;;4877362;29;20041;-60
2022/06/14 07:15:05;;;;;;;8.68;2.20;;;;;;;;;;4878937;29;20037;-60
2022/06/14 07:17:39;;;;;;;11.05;2.50;;;;;;;;;;4876048;29;20063;-60
2022/06/14 07:20:20;;;;;;;10.23;2.30;;;;;;;;;;4865228;29;20061;-60
2022/06/14 07:22:49;;;;;;;;;;;;;;;;;;4858725;29;20036;-59
2022/06/14 07:25:26;;;;;;;7.63;2.33;;;;;;;;;;4877892;29;19954;-61
2022/06/14 07:28:21;;;;;;;8.20;2.45;;;;;;;;;;4878143;29;20407;-60
2022/06/14 07:30:52;;;;;;;11.00;2.53;;;;;;;;;;4878419;29;20025;-60
2022/06/14 07:33:21;;;;;;;6.95;2.40;;;;;;;;;;4878034;29;20037;-61
2022/06/14 07:36:20;;;;;;;11.45;2.85;;;;;;;;;;4877326;29;20056;-60
2022/06/14 07:38:45;;;;;;;10.98;2.83;;;;;;;;;;4867152;29;20525;-60
2022/06/14 07:41:20;;;;;;;9.15;2.60;;;;;;;;;;4875763;29;20036;-60
2022/06/14 07:44:03;;;;;;;10.60;2.85;;;;;;;;;;4878060;29;20093;-60
2022/06/14 07:46:40;;;;;;;7.60;2.28;;;;;;;;;;4877604;29;20043;-60
2022/06/14 07:49:23;;;;;;;9.82;2.75;;;;;;;;;;4877149;29;20166;-61
2022/06/14 07:52:15;;;;;;;7.15;2.53;;;;;;;;;;4877486;29;20044;-60
2022/06/14 07:54:45;;;;;;;8.50;2.78;;;;;;;;;;4874502;29;20162;-60
2022/06/14 07:57:16;;;;;;;11.87;2.80;;;;;;;;;;4877867;29;20033;-60
2022/06/14 07:59:54;;;;;;;;;;;;;;;;;;4877722;29;20335;-61
2022/06/14 08:02:22;;;;;;;10.27;2.83;;;;;;;;;;4877350;29;19915;-60
2022/06/14 08:05:04;;;;;;;12.10;3.00;;;;;;;;;;4878369;29;20033;-60
2022/06/14 08:07:31;;;;;;;9.75;2.90;;;;;;;;;;4878044;29;20044;-60
2022/06/14 08:10:12;;;;;;;12.27;3.50;;;;;;;;;;4877747;29;20048;-61
2022/06/14 08:12:39;;;;;;;;;;;;;;;;;;4878230;29;20363;-60
2022/06/14 08:15:10;;;;;;;9.07;3.70;;;;;;;;;;4877661;29;19920;-60
2022/06/14 08:17:41;;;;;;;;;;;;;;;;;;4877004;29;20048;-60
2022/06/14 08:20:18;;;;;;;11.07;3.95;;;;;;;;;;4877432;29;20006;-61
2022/06/14 08:22:48;;;;;;;8.18;4.15;;;;;;;;;;4878276;29;20033;-60
2022/06/14 08:25:18;;;;;;;10.65;4.43;;;;;;;;;;4877737;29;20132;-59
2022/06/14 08:28:06;;;;;;;12.85;4.68;;;;;;;;;;4878246;29;20109;-60
2022/06/14 08:30:38;;;;;;;11.88;4.53;;;;;;;;;;4878391;29;20037;-60
2022/06/14 08:33:14;;;;;;;12.90;4.80;;;;;;;;;;4877743;29;20025;-61
2022/06/14 08:35:51;;;;;;;11.75;4.10;;;;;;;;;;4876380;29;20632;-60
2022/06/14 08:38:49;;;;;;;10.25;4.13;;;;;;;;;;4877621;29;20125;-60
2022/06/14 08:41:36;;;;;;;9.45;4.53;;;;;;;;;;4873088;29;20059;-60
2022/06/14 08:44:18;;;;;;;12.40;4.47;;;;;;;;;;4875786;29;20032;-60
2022/06/14 08:47:05;;;;;;;12.43;4.72;;;;;;;;;;4878231;29;20082;-61
2022/06/14 08:49:34;;;;;;;11.63;5.50;;;;;;;;;;4881330;29;20071;-60
2022/06/14 08:52:29;;;;;;;12.13;5.65;;;;;;;;;;4880085;29;20065;-61
2022/06/14 08:55:09;;;;;;;12.15;5.82;;;;;;;;;;4863023;29;20037;-61
2022/06/14 08:57:54;;;;;;;9.63;4.93;;;;;;;;;;4862506;29;20076;-60
2022/06/14 09:00:29;;;;;;;11.32;6.07;;;;;;;;;;4878830;29;20132;-61
2022/06/14 09:03:00;;;;;;;9.68;6.32;;;;;;;;;;4881396;29;20068;-61
2022/06/14 09:05:32;;;;;;;11.85;6.35;;;;;;;;;;4879969;29;20044;-61
2022/06/14 09:08:26;;;;;;;9.68;6.55;;;;;;;;;;4881190;29;20172;-61
2022/06/14 09:11:26;;;;;;;9.35;5.55;;;;;;;;;;4866602;29;20097;-60
2022/06/14 09:14:26;;;;;;;11.32;5.15;;;;;;;;;;4881141;29;20096;-60
2022/06/14 09:17:28;;;;;;;10.38;4.90;;;;;;;;;;4809872;29;20059;-61
2022/06/14 09:20:01;;;;;;;;;;;;;;;;;;4881803;29;20037;-60
2022/06/14 09:22:38;;;;;;;9.07;4.65;;;;;;;;;;4879371;29;20006;-60
2022/06/14 09:25:25;;;;;;;10.48;4.38;;;;;;;;;;4880303;29;20041;-60
2022/06/14 09:28:41;;;;;;;10.90;4.78;;;;;;;;;;4880630;29;20158;-61
2022/06/14 09:31:48;;;;;;;8.25;4.85;;;;;;;;;;4827921;29;20056;-61
2022/06/14 09:34:31;;;;;;;10.25;4.72;;;;;;;;;;4879496;29;20128;-62
2022/06/14 09:37:21;;;;;;;9.25;4.50;;;;;;;;;;4862104;29;20069;-61
2022/06/14 09:40:20;;;;;;;11.48;5.13;;;;;;;;;;4862384;29;20044;-61
2022/06/14 09:42:48;;;;;;;8.82;4.88;;;;;;;;;;4861694;29;20400;-60
2022/06/14 09:45:23;;;;;;;9.73;5.35;;;;;;;;;;4869631;29;20036;-61
2022/06/14 09:48:19;;;;;;;7.53;4.93;;;;;;;;;;4875194;29;20069;-60
2022/06/14 09:51:03;;;;;;;8.23;5.20;;;;;;;;;;4880162;29;20041;-61
2022/06/14 09:54:00;;;;;;;10.77;5.00;;;;;;;;;;4878753;29;20060;-59
2022/06/14 09:56:47;;;;;;;8.38;4.55;;;;;;;;;;4798052;29;20128;-60
2022/06/14 09:59:35;;;;;;;10.25;4.85;;;;;;;;;;4877410;29;20457;-60
2022/06/14 10:02:25;;;;;;;10.93;4.80;;;;;;;;;;4880302;29;20037;-60
2022/06/14 10:05:25;;;;;;;8.65;3.90;;;;;;;;;;4880042;29;20052;-60
2022/06/14 10:08:26;;;;;;;7.82;3.40;;;;;;;;;;4879019;29;20041;-59
2022/06/14 10:11:21;;;;;;;8.10;3.72;;;;;;;;;;4879016;29;20072;-60
2022/06/14 10:14:08;;;;;;;11.95;4.03;;;;;;;;;;4879538;29;20032;-60
2022/06/14 10:17:05;;;;;;;8.85;3.70;;;;;;;;;;4865388;29;20132;-60
2022/06/14 10:19:48;;;;;;;9.07;4.22;;;;;;;;;;4860119;29;20069;-60
2022/06/14 10:22:32;;;;;;;8.52;3.80;;;;;;;;;;4860539;29;20037;-60
2022/06/14 10:25:10;;;;;;;11.75;4.15;;;;;;;;;;4862471;29;20029;-59
2022/06/14 10:30:45;;;;;;;10.10;4.20;;;;;;;;;;4878994;29;20048;-59
2022/06/14 10:33:29;;;;;;;10.93;4.35;;;;;;;;;;4879157;29;20120;-61
2022/06/14 10:36:29;;;;;;;6.55;4.15;;;;;;;;;;4877956;29;20093;-61
2022/06/14 10:39:13;;;;;;;12.32;4.30;;;;;;;;;;4843629;29;20398;-60
2022/06/14 10:42:06;;;;;;;8.20;4.18;;;;;;;;;;4878361;29;20128;-60
2022/06/14 10:44:53;;;;;;;11.40;4.60;;;;;;;;;;4877482;29;20040;-59
2022/06/14 10:47:28;;;;;;;10.18;4.40;;;;;;;;;;4877903;29;20033;-59
2022/06/14 10:50:05;;;;;;;8.65;4.30;;;;;;;;;;4872807;29;20182;-60
2022/06/14 10:53:09;;;;;;;6.03;3.47;;;;;;;;;;4860192;29;20356;-59
2022/06/14 10:55:38;;;;;;;7.60;3.17;;;;;;;;;;4784800;30;20047;-60
2022/06/14 10:58:38;;;;;;;14.77;3.72;;;;;;;;;;4785510;30;20035;-60
2022/06/14 11:01:23;;;;;;;10.68;3.20;;;;;;;;;;4802417;29;20536;-60
2022/06/14 11:04:12;;;;;;;7.45;3.72;;;;;;;;;;4803678;29;20039;-60
2022/06/14 11:07:14;;;;;;;6.43;3.30;;;;;;;;;;4803251;29;20465;-60
2022/06/14 11:09:52;;;;;;;7.25;3.30;;;;;;;;;;4803471;29;20046;-60
2022/06/14 11:12:35;;;;;;;7.95;3.28;;;;;;;;;;4801171;29;20071;-60
2022/06/14 11:15:14;;;;;;;7.35;2.90;;;;;;;;;;4802560;29;20133;-60
2022/06/14 11:18:17;;;;;;;10.32;3.40;;;;;;;;;;4802488;29;20064;-60
2022/06/14 11:21:09;;;;;;;8.02;3.30;;;;;;;;;;4801974;29;20416;-60
2022/06/14 11:23:56;;;;;;;5.82;2.80;;;;;;;;;;4802728;29;20035;-60
2022/06/14 11:26:50;;;;;;;7.60;2.97;;;;;;;;;;4840101;29;20071;-60
2022/06/14 11:29:34;;;;;;;7.47;2.85;;;;;;;;;;4876637;29;20036;-60
2022/06/14 11:32:10;;;;;;;7.28;3.00;;;;;;;;;;4878654;29;20041;-60
2022/06/14 11:34:56;;;;;;;5.53;2.55;;;;;;;;;;4877238;29;20085;-60
2022/06/14 11:37:43;;;;;;;8.70;2.80;;;;;;;;;;4877590;29;20106;-60
2022/06/14 11:40:17;;;;;;;7.65;2.90;;;;;;;;;;4878697;29;20088;-60
2022/06/14 11:43:11;;;;;;;5.38;2.33;;;;;;;;;;4878519;29;20052;-60
2022/06/14 11:45:45;;;;;;;5.93;2.55;;;;;;;;;;4859364;29;20539;-60
2022/06/14 11:48:53;;;;;;;8.77;2.40;;;;;;;;;;4859372;29;20041;-60
2022/06/14 11:51:48;;;;;;;5.70;2.40;;;;;;;;;;4832650;29;20127;-60
2022/06/14 11:54:33;;;;;;;8.00;2.83;;;;;;;;;;4843141;29;20071;-60
2022/06/14 11:57:04;;;;;;;6.95;2.55;;;;;;;;;;4878375;29;20072;-60
2022/06/14 11:59:47;;;;;;;4.82;2.50;;;;;;;;;;4876536;29;20056;-60
2022/06/14 12:02:31;;;;;;;9.52;2.75;;;;;;;;;;4877858;29;20041;-61
2022/06/14 12:05:04;;;;;;;7.05;2.58;;;;;;;;;;4855214;29;20085;-61
2022/06/14 12:07:41;;;;;;;5.07;2.50;;;;;;;;;;4859567;29;20382;-61
2022/06/14 12:11:00;;;;;;;8.15;2.42;;;;;;;;;;4862807;29;20080;-60
2022/06/14 12:13:39;;;;;;;7.47;2.50;;;;;;;;;;4845677;29;20431;-61
2022/06/14 12:16:47;;;;;;;7.50;2.70;;;;;;;;;;4861083;29;20044;-62
2022/06/14 12:19:22;;;;;;;6.43;2.70;;;;;;;;;;4826735;29;20089;-61
2022/06/14 12:22:28;;;;;;;6.18;2.72;;;;;;;;;;4877589;29;20369;-61
2022/06/14 12:28:19;;;;;;;7.85;3.03;;;;;;;;;;4881030;29;20151;-60
2022/06/14 12:30:46;;;;;;;5.45;2.08;;;;;;;;;;4881229;29;20040;-61
2022/06/14 12:33:29;;;;;;;7.63;2.17;;;;;;;;;;4863933;29;20104;-60
2022/06/14 12:36:34;;;;;;;8.38;2.70;;;;;;;;;;4880706;29;20039;-60
2022/06/14 12:39:07;;;;;;;8.10;2.33;;;;;;;;;;4861233;29;20044;-61
2022/06/14 12:41:43;;;;;;;5.85;1.98;;;;;;;;;;4880196;29;20089;-61
2022/06/14 12:44:38;;;;;;;6.45;2.90;;;;;;;;;;4881712;29;20032;-61
2022/06/14 12:47:06;;;;;;;5.25;2.80;;;;;;;;;;4881776;29;20033;-60
2022/06/14 12:49:42;;;;;;;8.13;3.65;;;;;;;;;;4880231;29;20040;-61
2022/06/14 12:52:11;;;;;;;7.45;3.97;;;;;;;;;;4880269;29;20418;-61
2022/06/14 12:54:56;;;;;;;7.70;3.25;;;;;;;;;;4879898;29;20048;-60
2022/06/14 12:57:56;;;;;;;6.82;3.80;;;;;;;;;;4880139;29;20093;-61
2022/06/14 13:00:59;;;;;;;6.63;3.60;;;;;;;;;;4850669;29;20045;-61
2022/06/14 13:03:48;;;;;;;9.05;3.67;;;;;;;;;;4880378;29;20398;-61
2022/06/14 13:06:36;;;;;;;7.03;3.60;;;;;;;;;;4837045;29;20053;-60
2022/06/14 13:09:22;;;;;;;7.70;3.80;;;;;;;;;;4880006;29;20056;-61
2022/06/14 13:12:16;;;;;;;10.18;3.20;;;;;;;;;;4880001;29;20065;-60
2022/06/14 13:14:52;;;;;;;5.60;2.40;;;;;;;;;;4880494;29;20033;-61
2022/06/14 13:17:33;;;;;;;5.90;2.33;;;;;;;;;;4880313;29;20112;-60
2022/06/14 13:20:09;;;;;;;5.60;2.38;;;;;;;;;;4881030;29;20029;-60
2022/06/14 13:22:58;;;;;;;6.93;2.60;;;;;;;;;;4880366;29;20093;-61
2022/06/14 13:25:41;;;;;;;5.47;2.40;;;;;;;;;;4879124;29;20048;-62
2022/06/14 13:28:32;;;;;;;4.78;2.28;;;;;;;;;;4879501;29;20498;-60
2022/06/14 13:31:30;;;;;;;8.80;2.30;;;;;;;;;;4851797;29;20139;-60
2022/06/14 13:34:21;;;;;;;4.85;1.90;;;;;;;;;;4871917;29;20041;-60
2022/06/14 13:37:25;;;;;;;6.85;2.22;;;;;;;;;;4879408;29;20421;-60
2022/06/14 13:40:22;;;;;;;8.43;2.53;;;;;;;;;;4860881;29;20505;-60
2022/06/14 13:43:17;;;;;;;4.68;2.38;;;;;;;;;;4862801;29;20056;-60
2022/06/14 13:46:31;;;;;;;6.50;2.05;;;;;;;;;;4879986;29;20048;-60
2022/06/14 13:49:15;;;;;;;4.20;1.50;;;;;;;;;;4860385;29;20045;-60
2022/06/14 13:51:56;;;;;;;6.78;1.98;;;;;;;;;;4861243;29;20041;-60
2022/06/14 13:54:36;;;;;;;;;;;;;;;;;;4879271;29;20075;-60
2022/06/14 13:57:30;;;;;;;4.68;1.85;;;;;;;;;;4879333;29;19919;-60
2022/06/14 14:00:16;;;;;;;4.95;2.00;;;;;;;;;;4873560;29;20037;-60
2022/06/14 14:02:55;;;;;;;6.57;1.85;;;;;;;;;;4878728;29;20039;-61
2022/06/14 14:05:33;;;;;;;4.97;1.80;;;;;;;;;;4878620;29;20032;-60
2022/06/14 14:08:24;;;;;;;6.45;2.10;;;;;;;;;;4880169;29;20733;-61
2022/06/14 14:11:05;;;;;;;3.90;1.60;;;;;;;;;;4878367;29;20071;-60
2022/06/14 14:14:02;;;;;;;5.50;2.17;;;;;;;;;;4879055;29;20035;-61
2022/06/14 14:16:35;;;;;;;4.50;1.60;;;;;;;;;;4879340;29;20040;-62
2022/06/14 14:19:19;;;;;;;5.45;1.88;;;;;;;;;;4878953;29;20052;-60
2022/06/14 14:21:53;;;;;;;6.22;1.60;;;;;;;;;;4879217;29;20073;-61
2022/06/14 14:24:50;;;;;;;4.43;1.63;;;;;;;;;;4879880;29;20132;-60
2022/06/14 14:27:29;;;;;;;4.13;1.70;;;;;;;;;;4879792;29;20495;-60
2022/06/14 14:29:59;;;;;;;3.65;1.50;;;;;;;;;;4879008;29;20085;-60
2022/06/14 14:32:32;;;;;;;8.00;1.73;;;;;;;;;;4867577;29;20041;-62
2022/06/14 14:35:14;;;;;;;4.25;1.55;;;;;;;;;;4861090;29;20028;-60
2022/06/14 14:37:45;;;;;;;5.40;1.83;;;;;;;;;;4878799;29;20065;-60
2022/06/14 14:40:30;;;;;;;4.40;1.70;;;;;;;;;;4878998;29;20033;-60
2022/06/14 14:43:08;;;;;;;5.78;1.88;;;;;;;;;;4879364;29;20037;-60
2022/06/14 14:45:49;;;;;;;6.55;2.03;;;;;;;;;;4878325;29;20119;-61
2022/06/14 14:48:33;;;;;;;5.38;2.03;;;;;;;;;;4861692;29;20068;-61
2022/06/14 14:51:17;;;;;;;3.65;1.60;;;;;;;;;;4879403;29;20029;-60
2022/06/14 14:53:56;;;;;;;5.95;1.80;;;;;;;;;;4861166;29;20040;-60
2022/06/14 14:56:55;;;;;;;5.33;1.57;;;;;;;;;;4877615;29;20025;-61
2022/06/14 14:59:45;;;;;;;5.03;1.83;;;;;;;;;;4860959;29;20042;-61
2022/06/14 15:05:28;;;;;;;3.53;1.70;;;;;;;;;;4871358;29;20455;-61
2022/06/14 15:08:12;;;;;;;5.57;1.65;;;;;;;;;;4879123;29;20033;-60
2022/06/14 15:11:03;;;;;;;5.65;1.67;;;;;;;;;;4877482;29;20044;-60
2022/06/14 15:13:41;;;;;;;5.60;1.60;;;;;;;;;;4877623;29;20072;-61
2022/06/14 15:16:27;;;;;;;5.07;1.67;;;;;;;;;;4878258;29;20470;-61
2022/06/14 15:21:43;;;;;;;4.85;1.70;;;;;;;;;;4878042;29;20043;-60
2022/06/14 15:24:33;;;;;;;4.35;1.67;;;;;;;;;;4878084;29;20029;-60
2022/06/14 15:27:00;;;;;;;;;;;;;;;;;;4866123;29;20045;-60
2022/06/14 15:29:36;;;;;;;7.53;1.98;;;;;;;;;;4878641;29;19945;-61
2022/06/14 15:32:25;;;;;;;5.78;1.70;;;;;;;;;;4878722;29;20135;-60
2022/06/14 15:34:53;;;;;;;4.38;1.70;;;;;;;;;;4857312;29;20538;-61
2022/06/14 15:37:32;;;;;;;3.47;1.42;;;;;;;;;;4861961;29;20048;-61
2022/06/14 15:40:02;;;;;;;7.30;1.45;;;;;;;;;;4878724;29;20037;-61
2022/06/14 15:42:36;;;;;;;4.53;1.55;;;;;;;;;;4878328;29;20044;-60
2022/06/14 15:45:20;;;;;;;5.72;1.85;;;;;;;;;;4878666;29;20039;-60
2022/06/14 15:48:05;;;;;;;4.63;1.60;;;;;;;;;;4876769;29;20037;-60
2022/06/14 15:50:35;;;;;;;4.85;1.83;;;;;;;;;;4877563;29;20395;-60
2022/06/14 15:53:04;;;;;;;5.57;1.80;;;;;;;;;;4877251;29;20029;-60
2022/06/14 15:55:34;;;;;;;6.95;1.92;;;;;;;;;;4877959;29;20029;-62
2022/06/14 15:58:06;;;;;;;10.45;3.10;;;;;;;;;;4881074;29;20084;-61
2022/06/14 16:00:35;;;;;;;4.72;1.70;;;;;;;;;;4880950;29;20036;-60
2022/06/14 16:03:07;;;;;;;6.35;1.83;;;;;;;;;;4881767;29;20076;-60
2022/06/14 16:05:50;;;;;;;5.22;1.65;;;;;;;;;;4880527;29;20041;-60
2022/06/14 16:08:22;;;;;;;6.53;1.90;;;;;;;;;;4882073;29;20040;-60
2022/06/14 16:11:13;;;;;;;5.53;1.80;;;;;;;;;;4880550;29;20069;-60
2022/06/14 16:13:56;;;;;;;6.10;1.70;;;;;;;;;;4857660;29;20072;-61
2022/06/14 16:16:27;;;;;;;5.15;1.83;;;;;;;;;;4881249;29;20088;-62